Etusivu
METAR-TAF:

METAR-TAF

Lentoasemat :

Granite Falls Municipal Airport (Lenzen-Roe Memorial Field)

Granite Falls, Minnesota, Yhdysvallat

Leveyspiiri: 44-45-11N, Pituuspiiri: 095-33-21W, korkeus merenpinnasta: 319 m

Tämänhetkinen sää

Tämä raportti tehtiin 17 minuuttia sitten, kello 00.36 UTC
Tuuli 9 kn idästä/kaakosta
Lämpötila -11°C
Kosteus 78%
Ilmanpaine 1028 hPa
Näkyvyys: 11.3 km
Hajonneita pilviä 10000 ft:n korkeudessa
Pilvistä 12000 ft:n korkeudessa

METAR: KGDB 200036Z AUTO 12009KT 7SM BKN100 OVC120 M11/M14 A3035 RMK AO2 T11111137

Aika: 18:53 (00:53 UTC)


TAF: puuttuu

Säähavainnot ja -ennusteet yli 4000 lentoasemalta (METAR- ja TAF-raportit).

Käytössä olevat sääasemat on merkitty karttaan keltaisilla ja punaisilla pisteillä.

Aseta hiiri pisteen päälle nähdäksesi sääaseman nimen.

Klikkaa sitten nähdäksesi säähavainnot ja -ennusteet.

Kartan vaihtaminen: klikkaa mustalla rastilla varustettuja vihreitä pisteitä, niin voit zoomata sisään; viivalla varustettua vihreää pistettä, niin voit zoomata ulos tai vihreitä nuolia, niin pääset viereisille kartoille.


METAR-TAF: